sensor_id;sensor_type;location;lat;lon;timestamp;temperature;humidity
34837;DHT22;21053;50.848;4.652;2024-01-25T00:01:37;10.70;99.90
34837;DHT22;21053;50.848;4.652;2024-01-25T00:04:03;10.70;99.90
34837;DHT22;21053;50.848;4.652;2024-01-25T00:06:35;10.70;99.90
34837;DHT22;21053;50.848;4.652;2024-01-25T00:21:04;10.50;99.90
34837;DHT22;21053;50.848;4.652;2024-01-25T00:23:33;10.30;99.90
34837;DHT22;21053;50.848;4.652;2024-01-25T00:26:02;10.30;99.90
34837;DHT22;21053;50.848;4.652;2024-01-25T00:28:31;10.20;99.90
34837;DHT22;21053;50.848;4.652;2024-01-25T00:31:04;10.20;99.90
34837;DHT22;21053;50.848;4.652;2024-01-25T00:33:33;10.10;99.90
34837;DHT22;21053;50.848;4.652;2024-01-25T00:36:02;10.10;99.90
34837;DHT22;21053;50.848;4.652;2024-01-25T00:38:29;10.10;99.90
34837;DHT22;21053;50.848;4.652;2024-01-25T00:41:01;10.00;99.90
34837;DHT22;21053;50.848;4.652;2024-01-25T00:43:30;10.10;99.90
34837;DHT22;21053;50.848;4.652;2024-01-25T00:45:59;10.10;99.90
34837;DHT22;21053;50.848;4.652;2024-01-25T00:48:28;10.00;99.90
34837;DHT22;21053;50.848;4.652;2024-01-25T00:50:56;9.90;99.90
34837;DHT22;21053;50.848;4.652;2024-01-25T00:53:23;10.00;99.90
34837;DHT22;21053;50.848;4.652;2024-01-25T00:55:52;10.00;99.90
34837;DHT22;21053;50.848;4.652;2024-01-25T00:58:19;9.80;99.90
34837;DHT22;21053;50.848;4.652;2024-01-25T01:00:45;9.70;99.90
34837;DHT22;21053;50.848;4.652;2024-01-25T01:03:15;9.60;99.90
34837;DHT22;21053;50.848;4.652;2024-01-25T01:05:43;9.60;99.90
34837;DHT22;21053;50.848;4.652;2024-01-25T01:08:12;9.70;99.90
34837;DHT22;21053;50.848;4.652;2024-01-25T01:10:38;9.70;99.90
34837;DHT22;21053;50.848;4.652;2024-01-25T01:13:06;9.60;99.90
34837;DHT22;21053;50.848;4.652;2024-01-25T01:15:35;9.50;99.90
34837;DHT22;21053;50.848;4.652;2024-01-25T01:18:01;9.30;99.90
34837;DHT22;21053;50.848;4.652;2024-01-25T01:20:30;9.10;99.90
34837;DHT22;21053;50.848;4.652;2024-01-25T01:22:58;9.00;99.90
34837;DHT22;21053;50.848;4.652;2024-01-25T01:25:25;9.10;99.90
34837;DHT22;21053;50.848;4.652;2024-01-25T01:27:53;9.10;99.90
34837;DHT22;21053;50.848;4.652;2024-01-25T01:30:21;9.20;99.90
34837;DHT22;21053;50.848;4.652;2024-01-25T01:32:46;9.20;99.90
34837;DHT22;21053;50.848;4.652;2024-01-25T01:35:15;9.20;99.90
34837;DHT22;21053;50.848;4.652;2024-01-25T01:37:41;8.90;99.90
34837;DHT22;21053;50.848;4.652;2024-01-25T01:40:09;8.90;99.90
34837;DHT22;21053;50.848;4.652;2024-01-25T01:42:38;8.80;99.90
34837;DHT22;21053;50.848;4.652;2024-01-25T01:45:06;8.60;99.90
34837;DHT22;21053;50.848;4.652;2024-01-25T01:47:33;8.50;99.90
34837;DHT22;21053;50.848;4.652;2024-01-25T01:50:02;8.60;99.90
34837;DHT22;21053;50.848;4.652;2024-01-25T01:52:29;8.60;99.90
34837;DHT22;21053;50.848;4.652;2024-01-25T01:54:59;8.60;99.90
34837;DHT22;21053;50.848;4.652;2024-01-25T01:57:25;8.60;99.90
34837;DHT22;21053;50.848;4.652;2024-01-25T01:59:55;8.60;99.90
34837;DHT22;21053;50.848;4.652;2024-01-25T02:02:25;8.50;99.90
34837;DHT22;21053;50.848;4.652;2024-01-25T02:04:53;8.50;99.90
34837;DHT22;21053;50.848;4.652;2024-01-25T02:07:30;8.50;99.90
34837;DHT22;21053;50.848;4.652;2024-01-25T02:09:59;8.40;99.90
34837;DHT22;21053;50.848;4.652;2024-01-25T02:12:26;8.40;99.90
34837;DHT22;21053;50.848;4.652;2024-01-25T02:14:53;8.30;99.90
34837;DHT22;21053;50.848;4.652;2024-01-25T02:17:22;8.30;99.90
34837;DHT22;21053;50.848;4.652;2024-01-25T02:19:48;8.40;99.90
34837;DHT22;21053;50.848;4.652;2024-01-25T02:22:19;8.30;99.90
34837;DHT22;21053;50.848;4.652;2024-01-25T02:24:45;8.20;99.90
34837;DHT22;21053;50.848;4.652;2024-01-25T02:27:11;8.20;99.90
34837;DHT22;21053;50.848;4.652;2024-01-25T02:29:40;8.00;99.90
34837;DHT22;21053;50.848;4.652;2024-01-25T02:32:12;8.00;99.90
34837;DHT22;21053;50.848;4.652;2024-01-25T02:34:41;7.90;99.90
34837;DHT22;21053;50.848;4.652;2024-01-25T02:37:09;7.90;99.90
34837;DHT22;21053;50.848;4.652;2024-01-25T02:39:38;7.80;99.90
34837;DHT22;21053;50.848;4.652;2024-01-25T02:42:05;7.70;99.90
34837;DHT22;21053;50.848;4.652;2024-01-25T02:44:34;7.60;99.90
34837;DHT22;21053;50.848;4.652;2024-01-25T02:47:00;7.50;99.90
34837;DHT22;21053;50.848;4.652;2024-01-25T02:49:27;7.50;99.90
34837;DHT22;21053;50.848;4.652;2024-01-25T02:51:56;7.40;99.90
34837;DHT22;21053;50.848;4.652;2024-01-25T02:54:25;7.40;99.90
34837;DHT22;21053;50.848;4.652;2024-01-25T02:56:54;7.40;99.90
34837;DHT22;21053;50.848;4.652;2024-01-25T02:59:23;7.30;99.90
34837;DHT22;21053;50.848;4.652;2024-01-25T03:01:49;7.30;99.90
34837;DHT22;21053;50.848;4.652;2024-01-25T03:04:16;7.20;99.90
34837;DHT22;21053;50.848;4.652;2024-01-25T03:06:43;7.10;99.90
34837;DHT22;21053;50.848;4.652;2024-01-25T03:09:10;7.00;99.90
34837;DHT22;21053;50.848;4.652;2024-01-25T03:11:35;7.00;99.90
34837;DHT22;21053;50.848;4.652;2024-01-25T03:14:04;6.90;99.90
34837;DHT22;21053;50.848;4.652;2024-01-25T03:16:32;7.00;99.90
34837;DHT22;21053;50.848;4.652;2024-01-25T03:18:58;6.80;99.90
34837;DHT22;21053;50.848;4.652;2024-01-25T03:21:25;6.80;99.90
34837;DHT22;21053;50.848;4.652;2024-01-25T03:23:56;6.70;99.90
34837;DHT22;21053;50.848;4.652;2024-01-25T03:26:27;6.50;99.90
34837;DHT22;21053;50.848;4.652;2024-01-25T03:28:57;6.60;99.90
34837;DHT22;21053;50.848;4.652;2024-01-25T03:31:26;6.50;99.90
34837;DHT22;21053;50.848;4.652;2024-01-25T03:33:53;6.50;99.90
34837;DHT22;21053;50.848;4.652;2024-01-25T03:36:19;6.50;99.90
34837;DHT22;21053;50.848;4.652;2024-01-25T03:38:48;6.60;99.90
34837;DHT22;21053;50.848;4.652;2024-01-25T03:41:17;6.70;99.90
34837;DHT22;21053;50.848;4.652;2024-01-25T03:43:46;6.70;99.90
34837;DHT22;21053;50.848;4.652;2024-01-25T03:46:14;6.70;99.90
34837;DHT22;21053;50.848;4.652;2024-01-25T03:48:40;6.50;99.90
34837;DHT22;21053;50.848;4.652;2024-01-25T03:51:09;6.40;99.90
34837;DHT22;21053;50.848;4.652;2024-01-25T03:53:41;6.40;99.90
34837;DHT22;21053;50.848;4.652;2024-01-25T03:56:14;6.40;99.90
34837;DHT22;21053;50.848;4.652;2024-01-25T03:58:45;6.40;99.90
34837;DHT22;21053;50.848;4.652;2024-01-25T04:01:15;6.30;99.90
34837;DHT22;21053;50.848;4.652;2024-01-25T04:03:43;6.20;99.90
34837;DHT22;21053;50.848;4.652;2024-01-25T04:06:18;6.20;99.90
34837;DHT22;21053;50.848;4.652;2024-01-25T04:08:45;6.20;99.90
34837;DHT22;21053;50.848;4.652;2024-01-25T04:11:12;6.30;99.90
34837;DHT22;21053;50.848;4.652;2024-01-25T04:13:40;6.30;99.90
34837;DHT22;21053;50.848;4.652;2024-01-25T04:16:09;5.90;99.90
34837;DHT22;21053;50.848;4.652;2024-01-25T04:18:41;5.90;99.90
34837;DHT22;21053;50.848;4.652;2024-01-25T04:21:09;6.00;99.90
34837;DHT22;21053;50.848;4.652;2024-01-25T04:23:36;6.00;99.90
34837;DHT22;21053;50.848;4.652;2024-01-25T04:26:05;6.00;99.90
34837;DHT22;21053;50.848;4.652;2024-01-25T04:28:37;5.80;99.90
34837;DHT22;21053;50.848;4.652;2024-01-25T04:31:09;5.80;99.90
34837;DHT22;21053;50.848;4.652;2024-01-25T04:33:35;5.90;99.90
34837;DHT22;21053;50.848;4.652;2024-01-25T04:36:05;5.80;99.90
34837;DHT22;21053;50.848;4.652;2024-01-25T04:38:32;5.80;99.90
34837;DHT22;21053;50.848;4.652;2024-01-25T04:41:04;5.80;99.90
34837;DHT22;21053;50.848;4.652;2024-01-25T04:43:37;5.70;99.90
34837;DHT22;21053;50.848;4.652;2024-01-25T04:46:03;5.70;99.90
34837;DHT22;21053;50.848;4.652;2024-01-25T04:48:32;5.80;99.90
34837;DHT22;21053;50.848;4.652;2024-01-25T04:51:01;5.80;99.90
34837;DHT22;21053;50.848;4.652;2024-01-25T04:53:35;5.80;99.90
34837;DHT22;21053;50.848;4.652;2024-01-25T04:56:02;5.70;99.90
34837;DHT22;21053;50.848;4.652;2024-01-25T04:58:31;5.70;99.90
34837;DHT22;21053;50.848;4.652;2024-01-25T05:01:00;5.70;99.90
34837;DHT22;21053;50.848;4.652;2024-01-25T05:03:28;5.60;99.90
34837;DHT22;21053;50.848;4.652;2024-01-25T05:05:56;5.50;99.90
34837;DHT22;21053;50.848;4.652;2024-01-25T05:08:26;5.40;99.90
34837;DHT22;21053;50.848;4.652;2024-01-25T05:10:55;5.10;99.90
34837;DHT22;21053;50.848;4.652;2024-01-25T05:13:24;5.10;99.90
34837;DHT22;21053;50.848;4.652;2024-01-25T05:15:49;5.20;99.90
34837;DHT22;21053;50.848;4.652;2024-01-25T05:18:21;5.20;99.90
34837;DHT22;21053;50.848;4.652;2024-01-25T05:20:49;5.10;99.90
34837;DHT22;21053;50.848;4.652;2024-01-25T05:23:16;5.00;99.90
34837;DHT22;21053;50.848;4.652;2024-01-25T05:25:44;4.90;99.90
34837;DHT22;21053;50.848;4.652;2024-01-25T05:28:13;4.90;99.90
34837;DHT22;21053;50.848;4.652;2024-01-25T05:30:42;4.80;99.90
34837;DHT22;21053;50.848;4.652;2024-01-25T05:33:11;4.90;99.90
34837;DHT22;21053;50.848;4.652;2024-01-25T05:35:40;5.00;99.90
34837;DHT22;21053;50.848;4.652;2024-01-25T05:38:08;5.00;99.90
34837;DHT22;21053;50.848;4.652;2024-01-25T05:40:35;5.00;99.90
34837;DHT22;21053;50.848;4.652;2024-01-25T05:43:04;4.90;99.90
34837;DHT22;21053;50.848;4.652;2024-01-25T05:45:32;4.90;99.90
34837;DHT22;21053;50.848;4.652;2024-01-25T05:47:58;5.00;99.90
34837;DHT22;21053;50.848;4.652;2024-01-25T05:50:32;4.90;99.90
34837;DHT22;21053;50.848;4.652;2024-01-25T05:52:59;4.90;99.90
34837;DHT22;21053;50.848;4.652;2024-01-25T05:55:28;4.90;99.90
34837;DHT22;21053;50.848;4.652;2024-01-25T05:57:57;4.90;99.90
34837;DHT22;21053;50.848;4.652;2024-01-25T06:00:24;4.90;99.90
34837;DHT22;21053;50.848;4.652;2024-01-25T06:02:53;4.90;99.90
34837;DHT22;21053;50.848;4.652;2024-01-25T06:05:21;4.90;99.90
34837;DHT22;21053;50.848;4.652;2024-01-25T06:07:48;4.70;99.90
34837;DHT22;21053;50.848;4.652;2024-01-25T06:10:18;4.60;99.90
34837;DHT22;21053;50.848;4.652;2024-01-25T06:12:45;4.50;99.90
34837;DHT22;21053;50.848;4.652;2024-01-25T06:15:11;4.60;99.90
34837;DHT22;21053;50.848;4.652;2024-01-25T06:17:37;4.60;99.90
34837;DHT22;21053;50.848;4.652;2024-01-25T06:20:03;4.70;99.90
34837;DHT22;21053;50.848;4.652;2024-01-25T06:22:33;4.70;99.90
34837;DHT22;21053;50.848;4.652;2024-01-25T06:25:02;4.80;99.90
34837;DHT22;21053;50.848;4.652;2024-01-25T06:27:29;4.70;99.90
34837;DHT22;21053;50.848;4.652;2024-01-25T06:29:57;4.70;99.90
34837;DHT22;21053;50.848;4.652;2024-01-25T06:32:22;4.70;99.90
34837;DHT22;21053;50.848;4.652;2024-01-25T06:34:48;4.70;99.90
34837;DHT22;21053;50.848;4.652;2024-01-25T06:37:15;4.50;99.90
34837;DHT22;21053;50.848;4.652;2024-01-25T06:39:41;4.60;99.90
34837;DHT22;21053;50.848;4.652;2024-01-25T06:42:10;4.60;99.90
34837;DHT22;21053;50.848;4.652;2024-01-25T06:44:37;4.60;99.90
34837;DHT22;21053;50.848;4.652;2024-01-25T06:47:09;4.70;99.90
34837;DHT22;21053;50.848;4.652;2024-01-25T06:49:35;4.70;99.90
34837;DHT22;21053;50.848;4.652;2024-01-25T06:52:05;4.70;99.90
34837;DHT22;21053;50.848;4.652;2024-01-25T06:54:33;4.70;99.90
34837;DHT22;21053;50.848;4.652;2024-01-25T06:56:59;4.80;99.90
34837;DHT22;21053;50.848;4.652;2024-01-25T06:59:25;4.80;99.90
34837;DHT22;21053;50.848;4.652;2024-01-25T07:01:53;4.80;99.90
34837;DHT22;21053;50.848;4.652;2024-01-25T07:04:26;4.90;99.90
34837;DHT22;21053;50.848;4.652;2024-01-25T07:06:53;5.10;99.90
34837;DHT22;21053;50.848;4.652;2024-01-25T07:09:21;5.20;99.90
34837;DHT22;21053;50.848;4.652;2024-01-25T07:11:50;5.20;99.90
34837;DHT22;21053;50.848;4.652;2024-01-25T07:14:18;5.30;99.90
34837;DHT22;21053;50.848;4.652;2024-01-25T07:16:47;5.30;99.90
34837;DHT22;21053;50.848;4.652;2024-01-25T07:19:15;5.40;99.90
34837;DHT22;21053;50.848;4.652;2024-01-25T07:21:41;5.50;99.90
34837;DHT22;21053;50.848;4.652;2024-01-25T07:24:07;5.60;99.90
34837;DHT22;21053;50.848;4.652;2024-01-25T07:26:35;5.70;99.90
34837;DHT22;21053;50.848;4.652;2024-01-25T07:29:09;5.70;99.90
34837;DHT22;21053;50.848;4.652;2024-01-25T07:31:36;5.80;99.90
34837;DHT22;21053;50.848;4.652;2024-01-25T07:34:04;5.90;99.90
34837;DHT22;21053;50.848;4.652;2024-01-25T07:36:32;6.10;99.90
34837;DHT22;21053;50.848;4.652;2024-01-25T07:38:59;6.20;99.90
34837;DHT22;21053;50.848;4.652;2024-01-25T07:41:27;6.30;99.90
34837;DHT22;21053;50.848;4.652;2024-01-25T07:43:54;6.30;99.90
34837;DHT22;21053;50.848;4.652;2024-01-25T07:46:23;6.40;99.90
34837;DHT22;21053;50.848;4.652;2024-01-25T07:48:52;6.50;99.90
34837;DHT22;21053;50.848;4.652;2024-01-25T07:51:17;6.60;99.90
34837;DHT22;21053;50.848;4.652;2024-01-25T07:53:44;6.70;99.90
34837;DHT22;21053;50.848;4.652;2024-01-25T07:56:13;6.70;99.90
34837;DHT22;21053;50.848;4.652;2024-01-25T07:58:40;6.70;99.90
34837;DHT22;21053;50.848;4.652;2024-01-25T08:01:06;6.80;99.90
34837;DHT22;21053;50.848;4.652;2024-01-25T08:03:35;7.00;99.90
34837;DHT22;21053;50.848;4.652;2024-01-25T08:06:08;7.10;99.90
34837;DHT22;21053;50.848;4.652;2024-01-25T08:08:36;7.20;99.90
34837;DHT22;21053;50.848;4.652;2024-01-25T08:11:02;7.20;99.90
34837;DHT22;21053;50.848;4.652;2024-01-25T08:13:30;7.40;99.90
34837;DHT22;21053;50.848;4.652;2024-01-25T08:17:23;7.30;99.90
34837;DHT22;21053;50.848;4.652;2024-01-25T08:19:51;7.20;99.90
34837;DHT22;21053;50.848;4.652;2024-01-25T08:22:19;7.10;99.90
34837;DHT22;21053;50.848;4.652;2024-01-25T08:24:45;7.20;99.90
34837;DHT22;21053;50.848;4.652;2024-01-25T08:27:13;7.20;99.90
34837;DHT22;21053;50.848;4.652;2024-01-25T08:29:45;7.30;99.90
34837;DHT22;21053;50.848;4.652;2024-01-25T08:32:14;7.40;99.90
34837;DHT22;21053;50.848;4.652;2024-01-25T08:34:43;7.60;99.90
34837;DHT22;21053;50.848;4.652;2024-01-25T08:37:08;7.60;99.90
34837;DHT22;21053;50.848;4.652;2024-01-25T08:39:34;7.60;99.90
34837;DHT22;21053;50.848;4.652;2024-01-25T08:42:01;7.60;99.90
34837;DHT22;21053;50.848;4.652;2024-01-25T08:44:32;7.70;99.90
34837;DHT22;21053;50.848;4.652;2024-01-25T08:47:01;7.70;99.90
34837;DHT22;21053;50.848;4.652;2024-01-25T08:49:26;7.70;99.90
34837;DHT22;21053;50.848;4.652;2024-01-25T08:51:55;7.80;99.90
34837;DHT22;21053;50.848;4.652;2024-01-25T08:54:22;7.90;99.90
34837;DHT22;21053;50.848;4.652;2024-01-25T08:56:47;7.90;99.90
34837;DHT22;21053;50.848;4.652;2024-01-25T08:59:16;7.90;99.90
34837;DHT22;21053;50.848;4.652;2024-01-25T09:01:44;7.90;99.90
34837;DHT22;21053;50.848;4.652;2024-01-25T09:04:13;8.10;99.90
34837;DHT22;21053;50.848;4.652;2024-01-25T09:06:44;8.20;99.90
34837;DHT22;21053;50.848;4.652;2024-01-25T09:09:13;8.00;99.90
34837;DHT22;21053;50.848;4.652;2024-01-25T09:11:42;8.10;99.90
34837;DHT22;21053;50.848;4.652;2024-01-25T09:14:07;8.10;99.90
34837;DHT22;21053;50.848;4.652;2024-01-25T09:16:36;8.10;99.90
34837;DHT22;21053;50.848;4.652;2024-01-25T09:19:04;8.10;99.90
34837;DHT22;21053;50.848;4.652;2024-01-25T09:21:33;8.20;99.90
34837;DHT22;21053;50.848;4.652;2024-01-25T09:24:02;8.30;99.90
34837;DHT22;21053;50.848;4.652;2024-01-25T09:26:31;8.40;99.90
34837;DHT22;21053;50.848;4.652;2024-01-25T09:29:00;8.50;99.90
34837;DHT22;21053;50.848;4.652;2024-01-25T09:31:26;8.60;99.90
34837;DHT22;21053;50.848;4.652;2024-01-25T09:33:55;8.60;99.90
34837;DHT22;21053;50.848;4.652;2024-01-25T09:36:23;8.60;99.90
34837;DHT22;21053;50.848;4.652;2024-01-25T09:38:50;8.60;99.90
34837;DHT22;21053;50.848;4.652;2024-01-25T09:41:19;8.60;99.90
34837;DHT22;21053;50.848;4.652;2024-01-25T09:43:49;8.50;99.90
34837;DHT22;21053;50.848;4.652;2024-01-25T09:46:18;8.60;99.90
34837;DHT22;21053;50.848;4.652;2024-01-25T09:48:44;8.70;99.90
34837;DHT22;21053;50.848;4.652;2024-01-25T09:51:14;8.50;99.90
34837;DHT22;21053;50.848;4.652;2024-01-25T09:53:45;8.50;99.90
34837;DHT22;21053;50.848;4.652;2024-01-25T09:56:18;8.70;99.90
34837;DHT22;21053;50.848;4.652;2024-01-25T09:58:47;8.80;99.90
34837;DHT22;21053;50.848;4.652;2024-01-25T10:01:15;8.80;99.90
34837;DHT22;21053;50.848;4.652;2024-01-25T10:03:47;8.90;99.90
34837;DHT22;21053;50.848;4.652;2024-01-25T10:06:16;8.90;99.90
34837;DHT22;21053;50.848;4.652;2024-01-25T10:08:45;8.90;99.90
34837;DHT22;21053;50.848;4.652;2024-01-25T10:11:15;9.00;99.90
34837;DHT22;21053;50.848;4.652;2024-01-25T10:13:42;9.10;99.90
34837;DHT22;21053;50.848;4.652;2024-01-25T10:16:18;9.20;99.90
34837;DHT22;21053;50.848;4.652;2024-01-25T10:18:47;9.30;99.90
34837;DHT22;21053;50.848;4.652;2024-01-25T10:21:16;9.40;99.90
34837;DHT22;21053;50.848;4.652;2024-01-25T10:23:44;9.20;99.90
34837;DHT22;21053;50.848;4.652;2024-01-25T10:26:11;9.20;99.90
34837;DHT22;21053;50.848;4.652;2024-01-25T10:28:38;9.20;99.90
34837;DHT22;21053;50.848;4.652;2024-01-25T10:31:07;9.20;99.90
34837;DHT22;21053;50.848;4.652;2024-01-25T10:33:34;9.30;99.90
34837;DHT22;21053;50.848;4.652;2024-01-25T10:36:03;9.40;99.90
34837;DHT22;21053;50.848;4.652;2024-01-25T10:38:38;9.50;99.90
34837;DHT22;21053;50.848;4.652;2024-01-25T10:41:07;9.70;99.90
34837;DHT22;21053;50.848;4.652;2024-01-25T10:43:36;9.80;99.90
34837;DHT22;21053;50.848;4.652;2024-01-25T10:46:05;9.80;99.90
34837;DHT22;21053;50.848;4.652;2024-01-25T10:48:35;9.80;99.90
34837;DHT22;21053;50.848;4.652;2024-01-25T10:51:04;9.80;99.90
34837;DHT22;21053;50.848;4.652;2024-01-25T10:53:32;9.90;99.90
34837;DHT22;21053;50.848;4.652;2024-01-25T10:55:59;9.90;99.90
34837;DHT22;21053;50.848;4.652;2024-01-25T10:58:31;9.90;99.90
34837;DHT22;21053;50.848;4.652;2024-01-25T11:01:01;10.00;99.90
34837;DHT22;21053;50.848;4.652;2024-01-25T11:03:46;10.10;99.90
34837;DHT22;21053;50.848;4.652;2024-01-25T11:06:13;10.20;99.90
34837;DHT22;21053;50.848;4.652;2024-01-25T11:08:42;10.20;99.90
34837;DHT22;21053;50.848;4.652;2024-01-25T11:11:13;10.30;99.90
34837;DHT22;21053;50.848;4.652;2024-01-25T11:13:42;10.40;99.90
34837;DHT22;21053;50.848;4.652;2024-01-25T11:16:18;10.40;99.90
34837;DHT22;21053;50.848;4.652;2024-01-25T11:18:55;10.50;99.90
34837;DHT22;21053;50.848;4.652;2024-01-25T11:21:43;10.50;99.90
34837;DHT22;21053;50.848;4.652;2024-01-25T11:24:15;10.50;99.90
34837;DHT22;21053;50.848;4.652;2024-01-25T11:26:48;10.40;99.90
34837;DHT22;21053;50.848;4.652;2024-01-25T11:29:16;10.50;99.90
34837;DHT22;21053;50.848;4.652;2024-01-25T11:31:50;10.60;99.90
34837;DHT22;21053;50.848;4.652;2024-01-25T11:34:20;10.60;99.90
34837;DHT22;21053;50.848;4.652;2024-01-25T11:36:49;10.70;99.90
34837;DHT22;21053;50.848;4.652;2024-01-25T11:39:22;10.70;99.90
34837;DHT22;21053;50.848;4.652;2024-01-25T11:41:51;10.80;99.90
34837;DHT22;21053;50.848;4.652;2024-01-25T11:44:18;10.80;99.90
34837;DHT22;21053;50.848;4.652;2024-01-25T11:46:47;10.90;99.90
34837;DHT22;21053;50.848;4.652;2024-01-25T11:49:15;10.80;99.90
34837;DHT22;21053;50.848;4.652;2024-01-25T11:51:44;10.90;99.90
34837;DHT22;21053;50.848;4.652;2024-01-25T11:54:12;10.90;99.90
34837;DHT22;21053;50.848;4.652;2024-01-25T11:56:42;11.00;99.90
34837;DHT22;21053;50.848;4.652;2024-01-25T11:59:12;10.70;99.90
34837;DHT22;21053;50.848;4.652;2024-01-25T12:01:40;10.90;99.90
34837;DHT22;21053;50.848;4.652;2024-01-25T12:04:09;10.90;99.90
34837;DHT22;21053;50.848;4.652;2024-01-25T12:06:38;11.00;99.90
34837;DHT22;21053;50.848;4.652;2024-01-25T12:09:09;11.20;99.90
34837;DHT22;21053;50.848;4.652;2024-01-25T12:11:40;11.20;99.90
34837;DHT22;21053;50.848;4.652;2024-01-25T12:14:09;11.20;99.90
34837;DHT22;21053;50.848;4.652;2024-01-25T12:16:38;11.30;99.90
34837;DHT22;21053;50.848;4.652;2024-01-25T12:19:07;11.30;99.90
34837;DHT22;21053;50.848;4.652;2024-01-25T12:21:35;11.30;99.90
34837;DHT22;21053;50.848;4.652;2024-01-25T12:24:02;11.30;99.90
34837;DHT22;21053;50.848;4.652;2024-01-25T12:26:35;11.30;99.90
34837;DHT22;21053;50.848;4.652;2024-01-25T12:29:01;11.30;99.90
34837;DHT22;21053;50.848;4.652;2024-01-25T12:31:26;11.30;99.90
34837;DHT22;21053;50.848;4.652;2024-01-25T12:33:55;11.40;99.90
34837;DHT22;21053;50.848;4.652;2024-01-25T12:36:24;11.30;99.90
34837;DHT22;21053;50.848;4.652;2024-01-25T12:38:51;11.30;99.90
34837;DHT22;21053;50.848;4.652;2024-01-25T12:41:20;11.30;99.90
34837;DHT22;21053;50.848;4.652;2024-01-25T12:44:02;11.30;99.90
34837;DHT22;21053;50.848;4.652;2024-01-25T12:46:31;11.40;99.90
34837;DHT22;21053;50.848;4.652;2024-01-25T12:49:00;11.50;99.90
34837;DHT22;21053;50.848;4.652;2024-01-25T12:51:29;11.50;99.90
34837;DHT22;21053;50.848;4.652;2024-01-25T12:53:57;11.50;99.90
34837;DHT22;21053;50.848;4.652;2024-01-25T12:56:24;11.60;99.90
34837;DHT22;21053;50.848;4.652;2024-01-25T12:58:51;11.60;99.90
34837;DHT22;21053;50.848;4.652;2024-01-25T13:01:19;11.70;99.90
34837;DHT22;21053;50.848;4.652;2024-01-25T13:03:46;11.60;99.90
34837;DHT22;21053;50.848;4.652;2024-01-25T13:06:13;11.60;99.90
34837;DHT22;21053;50.848;4.652;2024-01-25T13:08:39;11.60;99.90
34837;DHT22;21053;50.848;4.652;2024-01-25T13:11:05;11.50;99.90
34837;DHT22;21053;50.848;4.652;2024-01-25T13:13:31;11.50;99.90
34837;DHT22;21053;50.848;4.652;2024-01-25T13:15:58;11.50;99.90
34837;DHT22;21053;50.848;4.652;2024-01-25T13:18:25;11.40;99.90
34837;DHT22;21053;50.848;4.652;2024-01-25T13:20:51;11.50;99.90
34837;DHT22;21053;50.848;4.652;2024-01-25T13:23:18;11.50;99.90
34837;DHT22;21053;50.848;4.652;2024-01-25T13:26:53;11.60;99.90
34837;DHT22;21053;50.848;4.652;2024-01-25T13:29:22;11.60;99.90
34837;DHT22;21053;50.848;4.652;2024-01-25T13:31:48;11.50;99.90
34837;DHT22;21053;50.848;4.652;2024-01-25T13:34:17;11.60;99.90
34837;DHT22;21053;50.848;4.652;2024-01-25T13:36:46;11.60;99.90
34837;DHT22;21053;50.848;4.652;2024-01-25T13:39:15;11.60;99.90
34837;DHT22;21053;50.848;4.652;2024-01-25T13:41:42;11.70;99.90
34837;DHT22;21053;50.848;4.652;2024-01-25T13:44:17;11.70;99.90
34837;DHT22;21053;50.848;4.652;2024-01-25T13:46:43;11.80;99.90
34837;DHT22;21053;50.848;4.652;2024-01-25T13:49:10;11.80;99.90
34837;DHT22;21053;50.848;4.652;2024-01-25T13:51:39;11.80;99.90
34837;DHT22;21053;50.848;4.652;2024-01-25T13:54:04;11.80;99.90
34837;DHT22;21053;50.848;4.652;2024-01-25T13:56:31;11.80;99.90
34837;DHT22;21053;50.848;4.652;2024-01-25T13:58:57;11.90;99.90
34837;DHT22;21053;50.848;4.652;2024-01-25T14:01:26;11.90;99.90
34837;DHT22;21053;50.848;4.652;2024-01-25T14:03:54;11.90;99.90
34837;DHT22;21053;50.848;4.652;2024-01-25T14:06:21;12.00;99.90
34837;DHT22;21053;50.848;4.652;2024-01-25T14:09:07;12.00;99.90
34837;DHT22;21053;50.848;4.652;2024-01-25T14:11:36;11.90;99.90
34837;DHT22;21053;50.848;4.652;2024-01-25T14:14:05;11.90;99.90
34837;DHT22;21053;50.848;4.652;2024-01-25T14:16:32;11.90;99.90
34837;DHT22;21053;50.848;4.652;2024-01-25T14:18:57;11.90;99.90
34837;DHT22;21053;50.848;4.652;2024-01-25T14:21:25;12.00;99.90
34837;DHT22;21053;50.848;4.652;2024-01-25T14:23:54;12.00;99.90
34837;DHT22;21053;50.848;4.652;2024-01-25T14:26:22;12.10;99.90
34837;DHT22;21053;50.848;4.652;2024-01-25T14:29:57;12.20;99.90
34837;DHT22;21053;50.848;4.652;2024-01-25T14:32:25;12.20;99.90
34837;DHT22;21053;50.848;4.652;2024-01-25T14:35:03;12.20;99.90
34837;DHT22;21053;50.848;4.652;2024-01-25T14:37:44;11.90;99.90
34837;DHT22;21053;50.848;4.652;2024-01-25T14:40:10;12.00;99.90
34837;DHT22;21053;50.848;4.652;2024-01-25T14:42:41;12.00;99.90
34837;DHT22;21053;50.848;4.652;2024-01-25T14:45:13;11.90;99.90
34837;DHT22;21053;50.848;4.652;2024-01-25T14:47:39;11.90;99.90
34837;DHT22;21053;50.848;4.652;2024-01-25T14:50:12;12.10;99.90
34837;DHT22;21053;50.848;4.652;2024-01-25T14:52:38;12.10;99.90
34837;DHT22;21053;50.848;4.652;2024-01-25T14:55:05;12.10;99.90
34837;DHT22;21053;50.848;4.652;2024-01-25T14:57:33;12.10;99.90
34837;DHT22;21053;50.848;4.652;2024-01-25T15:00:02;12.20;99.90
34837;DHT22;21053;50.848;4.652;2024-01-25T15:02:35;12.20;99.90
34837;DHT22;21053;50.848;4.652;2024-01-25T15:05:04;12.10;99.90
34837;DHT22;21053;50.848;4.652;2024-01-25T15:08:00;12.10;99.90
34837;DHT22;21053;50.848;4.652;2024-01-25T15:10:28;12.00;99.90
34837;DHT22;21053;50.848;4.652;2024-01-25T15:12:58;12.00;99.90
34837;DHT22;21053;50.848;4.652;2024-01-25T15:15:27;12.10;99.90
34837;DHT22;21053;50.848;4.652;2024-01-25T15:17:58;12.00;99.90
34837;DHT22;21053;50.848;4.652;2024-01-25T15:20:26;11.90;99.90
34837;DHT22;21053;50.848;4.652;2024-01-25T15:22:55;11.90;99.90
34837;DHT22;21053;50.848;4.652;2024-01-25T15:25:23;11.90;99.90
34837;DHT22;21053;50.848;4.652;2024-01-25T15:27:58;11.90;99.90
34837;DHT22;21053;50.848;4.652;2024-01-25T15:30:26;11.90;99.90
34837;DHT22;21053;50.848;4.652;2024-01-25T15:33:06;11.90;99.90
34837;DHT22;21053;50.848;4.652;2024-01-25T15:35:32;11.80;99.90
34837;DHT22;21053;50.848;4.652;2024-01-25T15:37:58;11.70;99.90
34837;DHT22;21053;50.848;4.652;2024-01-25T15:40:33;11.70;99.90
34837;DHT22;21053;50.848;4.652;2024-01-25T15:43:05;11.70;99.90
34837;DHT22;21053;50.848;4.652;2024-01-25T15:45:31;11.90;99.90
34837;DHT22;21053;50.848;4.652;2024-01-25T15:47:59;11.90;99.90
34837;DHT22;21053;50.848;4.652;2024-01-25T15:50:30;11.90;99.90
34837;DHT22;21053;50.848;4.652;2024-01-25T15:52:59;11.80;99.90
34837;DHT22;21053;50.848;4.652;2024-01-25T15:55:28;11.90;99.90
34837;DHT22;21053;50.848;4.652;2024-01-25T15:57:55;11.90;99.90
34837;DHT22;21053;50.848;4.652;2024-01-25T16:02:16;11.80;99.90
34837;DHT22;21053;50.848;4.652;2024-01-25T16:04:47;11.80;99.90
34837;DHT22;21053;50.848;4.652;2024-01-25T16:07:13;11.80;99.90